Time;durP1;ratioP1;P1;durP2;ratioP2;P2;SDS_P1;SDS_P2;PMS_P1;PMS_P2;Temp;Humidity;BMP_temperature;BMP_pressure;BME280_temperature;BME280_humidity;BME280_pressure;Samples;Min_cycle;Max_cycle;Signal;HPM_P1;HPM_P2
2024/02/07 00:02:39;;;;;;;7.00;2.80;;;;;;;13.12;82.05;97933.52;108018;1254;59935;-59
2024/02/07 00:05:50;;;;;;;4.90;3.30;;;;;;;13.22;80.36;97935.22;108005;1254;59905;-59
2024/02/07 00:08:47;;;;;;;5.30;3.10;;;;;;;13.26;80.12;97927.70;108077;1254;76272;-60
2024/02/07 00:11:58;;;;;;;4.30;2.90;;;;;;;13.33;78.75;97921.17;108209;1258;69021;-60
2024/02/07 00:15:04;;;;;;;4.40;3.10;;;;;;;13.23;79.86;97916.31;108088;1254;72396;-60
2024/02/07 00:17:35;;;;;;;6.00;3.00;;;;;;;13.17;80.18;97911.51;108172;1254;62125;-59
2024/02/07 00:20:47;;;;;;;5.20;3.30;;;;;;;13.12;80.48;97909.44;108016;1254;59654;-59
2024/02/07 00:23:58;;;;;;;6.00;3.10;;;;;;;13.00;81.04;97909.85;108024;1254;73084;-60
2024/02/07 00:27:09;;;;;;;6.90;3.20;;;;;;;13.03;81.16;97908.57;108035;1254;69274;-59
2024/02/07 00:29:42;;;;;;;3.80;2.60;;;;;;;12.94;81.71;97906.88;108094;1254;72508;-60
2024/02/07 00:32:53;;;;;;;5.50;3.20;;;;;;;13.00;81.46;97904.11;108059;1254;60684;-60
2024/02/07 00:36:05;;;;;;;6.50;3.20;;;;;;;12.94;81.59;97904.76;108182;1254;59877;-60
2024/02/07 00:39:18;;;;;;;4.70;3.20;;;;;;;12.92;82.12;97895.77;108200;1253;72709;-59
2024/02/07 00:46:17;;;;;;;5.10;3.20;;;;;;;13.07;80.04;97894.19;108138;1254;74221;-59
2024/02/07 00:53:08;;;;;;;6.00;3.20;;;;;;;13.11;79.71;97893.01;107935;1254;60102;-59
2024/02/07 00:56:20;;;;;;;4.00;2.90;;;;;;;13.16;79.29;97888.87;108005;1254;72869;-59
2024/02/07 00:59:31;;;;;;;5.70;3.10;;;;;;;13.11;78.61;97884.04;108078;1254;68357;-60
2024/02/07 01:02:43;;;;;;;4.60;3.30;;;;;;;13.51;75.27;97878.83;108006;1255;72913;-60
2024/02/07 01:05:54;;;;;;;4.30;2.40;;;;;;;13.66;72.48;97878.66;108102;1254;60608;-60
2024/02/07 01:09:06;;;;;;;6.70;3.00;;;;;;;13.50;72.26;97877.71;108171;1253;59816;-60
2024/02/07 01:12:19;;;;;;;7.00;3.10;;;;;;;12.81;79.41;97878.38;108139;1254;73318;-60
2024/02/07 01:15:30;;;;;;;6.90;2.90;;;;;;;13.11;77.50;97862.59;108226;1254;69036;-59
2024/02/07 01:18:41;;;;;;;7.10;2.70;;;;;;;13.14;76.65;97857.23;108134;1254;71713;-60
2024/02/07 01:21:52;;;;;;;4.00;2.90;;;;;;;13.13;76.79;97859.25;108062;1259;59771;-60
2024/02/07 01:24:23;;;;;;;3.50;2.90;;;;;;;13.13;76.04;97853.77;108115;1254;59851;-60
2024/02/07 01:27:34;;;;;;;4.70;2.90;;;;;;;13.07;76.39;97850.06;108183;1254;73794;-60
2024/02/07 01:30:45;;;;;;;5.10;3.00;;;;;;;13.13;75.63;97850.79;108163;1254;70805;-59
2024/02/07 01:33:57;;;;;;;5.00;3.00;;;;;;;13.05;75.96;97846.36;108166;1257;72883;-60
2024/02/07 01:37:09;;;;;;;7.70;3.00;;;;;;;13.18;74.72;97837.69;108068;1254;60695;-60
2024/02/07 01:40:23;;;;;;;3.80;2.70;;;;;;;12.99;76.20;97831.54;108124;1254;60094;-60
2024/02/07 01:43:36;;;;;;;5.60;2.90;;;;;;;13.05;76.41;97828.05;108120;1255;73811;-59
2024/02/07 01:46:48;;;;;;;4.90;2.50;;;;;;;12.77;78.04;97831.91;108065;1254;68513;-59
2024/02/07 01:50:03;;;;;;;6.50;2.70;;;;;;;12.94;77.42;97827.20;108075;1254;72381;-60
2024/02/07 01:53:20;;;;;;;6.00;2.80;;;;;;;12.82;77.61;97826.76;108149;1254;60845;-60
2024/02/07 01:56:32;;;;;;;6.00;2.90;;;;;;;12.91;77.52;97821.64;108129;1254;58879;-60
2024/02/07 01:59:43;;;;;;;5.50;3.40;;;;;;;12.83;77.30;97828.47;107894;1257;74044;-60
2024/02/07 02:06:35;;;;;;;4.50;2.90;;;;;;;12.96;76.67;97817.89;108379;1253;73385;-59
2024/02/07 02:09:47;;;;;;;5.60;3.20;;;;;;;12.71;77.70;97817.29;108112;1254;60683;-60
2024/02/07 02:12:58;;;;;;;4.20;2.60;;;;;;;12.77;77.90;97813.44;108177;1255;59705;-59
2024/02/07 02:16:09;;;;;;;3.20;2.90;;;;;;;12.87;77.10;97809.34;108323;1254;74257;-60
2024/02/07 02:19:21;;;;;;;4.70;2.80;;;;;;;12.97;75.83;97807.77;108180;1254;69391;-60
2024/02/07 02:22:33;;;;;;;6.30;3.30;;;;;;;12.95;74.99;97806.57;108018;1254;72869;-60
2024/02/07 02:29:40;;;;;;;4.20;2.70;;;;;;;12.98;74.77;97798.56;108177;1253;60003;-60
2024/02/07 02:32:33;;;;;;;8.80;2.80;;;;;;;12.91;74.95;97795.65;108088;1254;73599;-60
2024/02/07 02:35:46;;;;;;;3.70;2.60;;;;;;;12.93;75.25;97794.54;108087;1254;69095;-60
2024/02/07 02:38:57;;;;;;;3.30;2.60;;;;;;;12.85;75.43;97799.21;108105;1254;73367;-60
2024/02/07 02:42:09;;;;;;;7.80;3.20;;;;;;;12.94;74.51;97792.33;108180;1254;60782;-60
2024/02/07 02:45:20;;;;;;;5.20;2.40;;;;;;;12.95;74.40;97795.14;108210;1253;58680;-59
2024/02/07 02:48:31;;;;;;;4.60;2.90;;;;;;;13.01;73.41;97787.77;108016;1254;73728;-59
2024/02/07 02:51:43;;;;;;;4.90;2.80;;;;;;;13.02;73.23;97782.92;108035;1254;68535;-59
2024/02/07 02:55:00;;;;;;;4.80;2.60;;;;;;;13.08;72.22;97779.61;108010;1254;72089;-59
2024/02/07 02:58:11;;;;;;;5.10;2.50;;;;;;;13.16;71.55;97771.26;108097;1254;60558;-59
2024/02/07 03:01:35;;;;;;;3.30;2.50;;;;;;;13.26;70.65;97771.98;108224;1255;59766;-59
2024/02/07 03:05:00;;;;;;;3.70;2.60;;;;;;;13.16;70.74;97774.70;108192;1254;73612;-59
2024/02/07 03:08:29;;;;;;;3.70;2.30;;;;;;;13.17;70.22;97769.87;108078;1255;69601;-60
2024/02/07 03:11:03;;;;;;;4.80;2.60;;;;;;;13.18;69.96;97764.95;108130;1254;72405;-62
2024/02/07 03:21:33;;;;;;;4.80;2.60;;;;;;;13.00;71.60;97759.50;108151;1254;74464;-59
2024/02/07 03:24:04;;;;;;;3.70;2.20;;;;;;;13.11;70.27;97752.44;108093;1254;69559;-59
2024/02/07 03:27:15;;;;;;;4.90;2.70;;;;;;;13.08;70.16;97747.59;108141;1254;72301;-60
2024/02/07 03:30:01;;;;;;;5.20;2.60;;;;;;;13.07;70.15;97747.52;108162;1255;60891;-59
2024/02/07 03:33:12;;;;;;;3.90;2.40;;;;;;;13.03;70.21;97739.01;108064;1254;60265;-59
2024/02/07 03:36:26;;;;;;;4.30;2.60;;;;;;;12.98;70.64;97728.86;108155;1254;73642;-59
2024/02/07 03:39:37;;;;;;;5.10;2.50;;;;;;;13.01;70.80;97726.36;108049;1254;69274;-61
2024/02/07 03:42:48;;;;;;;5.80;2.50;;;;;;;12.93;70.69;97728.63;107946;1254;72337;-63
2024/02/07 03:46:05;;;;;;;7.20;2.60;;;;;;;13.11;70.01;97721.98;108163;1254;61572;-60
2024/02/07 03:49:17;;;;;;;4.20;2.30;;;;;;;13.13;69.54;97720.60;108180;1254;60080;-60
2024/02/07 03:52:28;;;;;;;3.30;2.40;;;;;;;13.20;69.10;97713.02;107870;1254;72248;-60
2024/02/07 03:55:39;;;;;;;5.80;2.50;;;;;;;13.21;68.67;97713.27;108113;1254;68527;-60
2024/02/07 03:58:28;;;;;;;3.90;2.40;;;;;;;13.17;69.05;97713.94;108043;1254;72353;-61
2024/02/07 04:01:39;;;;;;;4.30;2.30;;;;;;;13.11;69.70;97708.45;107946;1254;60129;-67
2024/02/07 04:08:38;;;;;;;5.10;2.50;;;;;;;12.91;71.44;97708.77;107997;1254;73569;-60
2024/02/07 05:16:30;;;;;;;2.90;2.60;;;;;;;13.15;65.55;97634.96;108095;1254;73052;-61
2024/02/07 05:19:42;;;;;;;3.00;2.50;;;;;;;13.24;65.31;97636.64;108137;1254;69510;-60
2024/02/07 05:22:54;;;;;;;4.10;3.10;;;;;;;13.15;66.03;97639.20;108157;1254;72504;-59
2024/02/07 05:26:05;;;;;;;4.40;2.40;;;;;;;13.15;65.80;97638.82;108040;1254;61054;-60
2024/02/07 05:29:02;;;;;;;4.50;2.70;;;;;;;13.28;65.54;97640.54;108056;1254;60087;-60
2024/02/07 05:32:14;;;;;;;3.50;2.80;;;;;;;13.13;65.89;97635.31;108191;1253;73621;-61
2024/02/07 05:35:04;;;;;;;5.00;2.70;;;;;;;12.87;67.93;97638.77;108065;1254;69428;-60
2024/02/07 05:38:18;;;;;;;6.80;2.80;;;;;;;12.93;67.43;97638.25;108061;1254;72016;-60
2024/02/07 05:41:11;;;;;;;4.80;2.90;;;;;;;13.00;67.00;97639.43;108237;1254;60040;-60
2024/02/07 05:44:23;;;;;;;5.00;2.90;;;;;;;12.85;67.50;97635.19;108124;1254;59801;-61
2024/02/07 05:47:16;;;;;;;5.20;2.90;;;;;;;13.02;66.47;97636.02;107978;1254;74020;-61
2024/02/07 06:01:23;;;;;;;2.20;2.00;;;;;;;12.75;69.13;97623.89;102918;1292;62543;-60
2024/02/07 06:04:37;;;;;;;2.50;2.20;;;;;;;12.88;67.78;97617.72;104433;1265;60027;-62
2024/02/07 06:07:08;;;;;;;4.10;2.70;;;;;;;12.75;69.13;97614.24;104439;1264;71866;-61
2024/02/07 06:09:35;;;;;;;3.10;2.60;;;;;;;12.67;69.64;97616.67;104087;1266;850051;-60
2024/02/07 06:12:46;;;;;;;4.40;2.50;;;;;;;12.85;68.71;97613.73;104016;1274;72930;-61
2024/02/07 06:15:18;;;;;;;3.10;2.70;;;;;;;12.69;69.45;97615.48;104534;1266;60953;-61
2024/02/07 06:22:16;;;;;;;4.80;2.50;;;;;;;12.84;69.17;97613.84;103861;1267;72673;-61
2024/02/07 06:25:27;;;;;;;3.80;2.40;;;;;;;12.80;69.31;97617.52;104629;1263;69256;-61
2024/02/07 06:32:05;;;;;;;3.30;2.50;;;;;;;12.79;70.08;97614.65;105203;1263;60700;-60
2024/02/07 06:35:16;;;;;;;4.00;2.20;;;;;;;12.85;70.35;97606.89;105115;1262;61589;-60
2024/02/07 06:38:17;;;;;;;2.60;2.10;;;;;;;12.83;70.71;97612.20;104300;1263;72777;-60
2024/02/07 06:41:29;;;;;;;3.60;2.10;;;;;;;12.91;69.97;97615.20;103850;1264;69485;-60
2024/02/07 06:44:21;;;;;;;2.70;2.30;;;;;;;12.75;72.13;97613.38;104301;1266;72165;-59
2024/02/07 06:46:48;;;;;;;3.40;2.20;;;;;;;12.81;72.75;97610.96;104123;1269;60952;-60
2024/02/07 06:49:21;;;;;;;3.20;2.60;;;;;;;12.90;71.75;97610.73;104229;1264;60242;-60
2024/02/07 06:52:22;;;;;;;3.70;2.40;;;;;;;12.95;71.33;97612.02;104036;1263;73059;-60
2024/02/07 06:54:56;;;;;;;2.10;1.90;;;;;;;13.03;70.63;97609.61;104063;1263;70039;-59
2024/02/07 07:01:48;;;;;;;2.90;2.60;;;;;;;12.89;70.93;97602.02;104223;1279;60988;-59
2024/02/07 07:05:12;;;;;;;4.40;2.60;;;;;;;13.02;70.27;97596.33;104953;1263;60159;-60
2024/02/07 07:07:39;;;;;;;3.60;2.50;;;;;;;13.00;70.85;97598.42;104538;1264;72181;-60
2024/02/07 07:10:49;;;;;;;3.70;2.20;;;;;;;13.10;69.99;97601.14;104830;1263;69620;-60
2024/02/07 07:14:00;;;;;;;3.60;2.00;;;;;;;13.05;69.61;97600.08;104545;1264;73091;-62
2024/02/07 07:17:13;;;;;;;3.90;2.40;;;;;;;13.40;67.40;97600.52;104443;1269;60989;-63
2024/02/07 07:19:41;;;;;;;3.20;2.40;;;;;;;13.26;68.01;97596.08;104608;1260;60076;-60
2024/02/07 07:22:08;;;;;;;2.50;1.90;;;;;;;13.32;68.15;97592.20;104711;1260;72836;-60
2024/02/07 07:25:19;;;;;;;2.50;2.20;;;;;;;13.34;67.82;97599.08;104961;1258;71203;-60
2024/02/07 07:27:47;;;;;;;4.90;2.00;;;;;;;13.32;67.42;97597.33;106189;1257;73178;-60
2024/02/07 07:30:14;;;;;;;5.10;2.30;;;;;;;13.32;67.65;97599.79;105311;1260;61445;-61
2024/02/07 07:33:27;;;;;;;3.30;1.90;;;;;;;13.29;67.85;97598.05;105371;1256;60278;-63
2024/02/07 07:40:27;;;;;;;3.20;2.50;;;;;;;13.83;64.57;97597.58;105333;1257;69734;-62
2024/02/07 07:46:48;;;;;;;6.20;2.30;;;;;;;13.71;65.01;97597.84;106649;1257;61526;-63
2024/02/07 07:50:07;;;;;;;2.40;1.90;;;;;;;13.77;64.06;97592.88;105058;1257;59726;-62
2024/02/07 07:52:38;;;;;;;5.30;1.70;;;;;;;13.90;63.33;97595.98;104856;1262;72853;-60
2024/02/07 08:00:15;;;;;;;2.70;2.00;;;;;;;14.08;62.17;97588.30;105861;1255;73986;-60
2024/02/07 08:07:26;;;;;;;2.40;1.90;;;;;;;14.16;61.84;97573.71;104488;1257;61427;-61
2024/02/07 08:11:57;;;;;;;2.10;1.90;;;;;;;13.52;71.02;97566.30;101786;1293;601701;-59
2024/02/07 08:22:27;;;;;;;2.90;1.90;;;;;;;14.08;61.10;97560.32;104085;1266;72775;-59
2024/02/07 08:25:01;;;;;;;2.30;2.00;;;;;;;14.28;60.32;97558.70;103894;1264;1110197;-61
2024/02/07 08:28:13;;;;;;;5.20;2.10;;;;;;;14.46;59.63;97551.44;103881;1264;72730;-60
2024/02/07 08:30:41;;;;;;;3.00;2.10;;;;;;;14.67;58.97;97544.53;104168;1265;60839;-61
2024/02/07 08:33:52;;;;;;;1.70;1.50;;;;;;;15.19;56.61;97546.92;104714;1263;59765;-61
2024/02/07 08:37:06;;;;;;;2.80;1.80;;;;;;;15.17;56.07;97546.79;104289;1262;72619;-59
2024/02/07 08:40:17;;;;;;;4.20;2.20;;;;;;;14.55;58.06;97541.64;104183;1264;69620;-60
2024/02/07 08:43:30;;;;;;;4.00;2.10;;;;;;;14.51;59.09;97541.86;104353;1263;73592;-60
2024/02/07 08:46:46;;;;;;;1.80;1.60;;;;;;;14.49;58.57;97544.26;104047;1263;61428;-60
2024/02/07 08:49:41;;;;;;;;;;;;;;;14.47;57.82;97545.88;105044;1263;59944;-60
2024/02/07 08:52:53;;;;;;;5.10;2.00;;;;;;;14.68;57.73;97537.41;104120;1263;73126;-61
2024/02/07 08:55:57;;;;;;;3.30;1.70;;;;;;;14.49;58.02;97541.08;104302;1270;68445;-61
2024/02/07 08:59:08;;;;;;;7.20;1.90;;;;;;;14.55;57.43;97533.45;104415;1264;72905;-60
2024/02/07 09:06:40;;;;;;;3.60;1.70;;;;;;;14.65;57.42;97513.54;104583;1263;61072;-61
2024/02/07 09:09:52;;;;;;;2.70;2.20;;;;;;;14.63;57.35;97501.08;104957;1256;72187;-61
2024/02/07 09:13:04;;;;;;;6.00;2.20;;;;;;;14.87;56.78;97495.46;105662;1256;70097;-62
2024/02/07 09:20:36;;;;;;;4.10;2.00;;;;;;;14.90;56.38;97502.80;105121;1256;62521;-60
2024/02/07 09:23:47;;;;;;;4.60;2.10;;;;;;;15.15;55.79;97485.17;106247;1256;60360;-61
2024/02/07 09:26:31;;;;;;;3.50;2.20;;;;;;;15.27;56.10;97486.89;105306;1260;75024;-60
2024/02/07 09:29:42;;;;;;;4.80;1.80;;;;;;;14.95;55.32;97485.52;105353;1257;69265;-62
2024/02/07 09:32:56;;;;;;;5.30;2.00;;;;;;;15.13;55.63;97480.14;105828;1256;72486;-60
2024/02/07 09:36:09;;;;;;;4.10;2.10;;;;;;;15.21;56.37;97483.38;105088;1257;60600;-61
2024/02/07 09:39:22;;;;;;;9.80;1.80;;;;;;;15.33;55.93;97479.79;105125;1257;59887;-60
2024/02/07 09:42:34;;;;;;;3.10;1.60;;;;;;;15.36;55.30;97479.48;105343;1260;73580;-60
2024/02/07 09:45:46;;;;;;;5.10;2.30;;;;;;;15.26;55.61;97490.13;104935;1256;69531;-60
2024/02/07 09:48:59;;;;;;;7.10;2.20;;;;;;;15.25;55.74;97486.55;105474;1257;72804;-59
2024/02/07 09:51:33;;;;;;;4.50;2.30;;;;;;;15.18;55.28;97489.89;104462;1257;61687;-60
2024/02/07 09:54:42;;;;;;;3.10;2.30;;;;;;;15.18;55.90;97475.91;104536;1260;61243;-61
2024/02/07 09:57:58;;;;;;;3.10;1.90;;;;;;;15.11;56.64;97482.63;104540;1262;75776;-60
2024/02/07 10:00:54;;;;;;;4.40;2.30;;;;;;;15.19;56.36;97477.42;105919;1257;70391;-60
2024/02/07 10:04:06;;;;;;;4.60;2.40;;;;;;;15.37;55.78;97470.75;105151;1257;72478;-61
2024/02/07 10:07:19;;;;;;;3.60;2.10;;;;;;;15.18;55.59;97470.77;104530;1261;61234;-60
2024/02/07 10:10:25;;;;;;;4.20;2.10;;;;;;;15.20;55.72;97463.95;104957;1260;61213;-60
2024/02/07 10:13:38;;;;;;;5.90;2.30;;;;;;;15.11;55.53;97460.17;105426;1257;73007;-59
2024/02/07 10:16:50;;;;;;;3.20;2.10;;;;;;;15.22;55.80;97453.33;104228;1257;69637;-60
2024/02/07 10:20:02;;;;;;;2.20;1.90;;;;;;;15.23;55.28;97460.84;104312;1260;72535;-59
2024/02/07 10:23:14;;;;;;;6.60;2.20;;;;;;;15.17;55.29;97462.59;104905;1260;61632;-60
2024/02/07 10:26:26;;;;;;;4.00;2.20;;;;;;;15.15;55.22;97462.68;104381;1260;59756;-60
2024/02/07 10:29:40;;;;;;;3.70;2.30;;;;;;;15.33;54.63;97456.98;104210;1263;72856;-60
2024/02/07 10:32:51;;;;;;;3.70;2.20;;;;;;;15.15;54.63;97463.02;105688;1257;69823;-60
2024/02/07 10:36:03;;;;;;;5.70;2.30;;;;;;;15.26;54.56;97461.70;104296;1260;72714;-59
2024/02/07 10:39:16;;;;;;;5.80;2.60;;;;;;;15.22;54.79;97453.88;104304;1264;61520;-60
2024/02/07 10:42:28;;;;;;;4.60;2.10;;;;;;;15.24;54.85;97458.20;104581;1261;59727;-60
2024/02/07 10:45:40;;;;;;;5.30;2.40;;;;;;;15.23;54.84;97453.57;104229;1276;73074;-61
2024/02/07 10:48:52;;;;;;;6.30;2.30;;;;;;;15.15;54.80;97449.92;105474;1257;70076;-61
2024/02/07 11:02:55;;;;;;;5.40;2.60;;;;;;;15.22;53.74;97451.56;104748;1262;74481;-61
2024/02/07 11:06:07;;;;;;;4.50;1.80;;;;;;;15.14;54.27;97462.78;105664;1257;70283;-61
2024/02/07 11:08:35;;;;;;;4.00;1.90;;;;;;;15.29;54.16;97453.70;104808;1257;72973;-60
2024/02/07 11:15:41;;;;;;;4.70;2.20;;;;;;;15.22;54.19;97454.20;105984;1257;61466;-62
2024/02/07 11:27:16;;;;;;;3.30;2.40;;;;;;;15.12;54.57;97446.21;105200;1257;74047;-60
2024/02/07 11:30:28;;;;;;;3.10;1.90;;;;;;;15.00;54.91;97432.52;104941;1256;61619;-60
2024/02/07 11:32:56;;;;;;;7.00;2.00;;;;;;;15.17;54.74;97435.13;104850;1260;61153;-60
2024/02/07 11:36:11;;;;;;;4.60;2.40;;;;;;;15.32;54.21;97430.15;104451;1263;73203;-60
2024/02/07 11:38:55;;;;;;;3.60;1.90;;;;;;;15.18;54.59;97428.10;104656;1257;70552;-61
2024/02/07 11:41:40;;;;;;;4.10;1.90;;;;;;;15.07;54.89;97418.97;104476;1261;73238;-60
2024/02/07 11:44:52;;;;;;;5.20;2.00;;;;;;;15.10;55.36;97424.34;104189;1257;62124;-62
2024/02/07 11:47:45;;;;;;;2.70;1.80;;;;;;;15.02;55.42;97422.98;104622;1263;60497;-59
2024/02/07 11:50:58;;;;;;;3.00;2.10;;;;;;;15.02;55.75;97423.87;105049;1257;72887;-58
2024/02/07 11:54:10;;;;;;;5.40;2.40;;;;;;;14.92;55.68;97427.94;105007;1273;69652;-57
2024/02/07 12:01:01;;;;;;;6.20;2.70;;;;;;;14.92;56.09;97426.00;104484;1257;62383;-58
2024/02/07 12:04:13;;;;;;;5.60;2.10;;;;;;;14.75;56.30;97423.75;104480;1269;59400;-58
2024/02/07 12:07:13;;;;;;;5.10;2.20;;;;;;;14.68;56.48;97417.39;104817;1257;75292;-58
2024/02/07 12:09:45;;;;;;;6.10;2.00;;;;;;;14.92;56.15;97406.83;105586;1257;69623;-59
2024/02/07 12:12:58;;;;;;;3.70;1.80;;;;;;;15.00;56.23;97405.33;107142;1256;72842;-58
2024/02/07 12:16:10;;;;;;;2.60;1.70;;;;;;;14.93;56.36;97411.14;105361;1261;60735;-59
2024/02/07 12:18:47;;;;;;;3.30;2.20;;;;;;;15.29;55.37;97409.35;104668;1263;59979;-57
2024/02/07 12:25:49;;;;;;;5.00;2.60;;;;;;;15.52;54.01;97409.27;104629;1257;69533;-57
2024/02/07 12:28:42;;;;;;;3.40;2.30;;;;;;;15.32;53.60;97406.44;105893;1257;72462;-59
2024/02/07 12:31:32;;;;;;;2.90;1.80;;;;;;;15.28;53.73;97408.48;105411;1262;61022;-58
2024/02/07 12:34:00;;;;;;;6.40;3.90;;;;;;;15.29;53.89;97411.86;104802;1260;60414;-59
2024/02/07 12:37:12;;;;;;;5.00;3.40;;;;;;;15.43;53.50;97405.02;104792;1260;72239;-57
2024/02/07 12:39:56;;;;;;;3.10;2.20;;;;;;;15.42;53.04;97408.29;104234;1260;68161;-58
2024/02/07 12:43:07;;;;;;;5.30;3.10;;;;;;;15.61;52.77;97415.30;104592;1257;72716;-58
2024/02/07 12:49:44;;;;;;;4.90;2.00;;;;;;;15.74;51.54;97416.66;104402;1263;59765;-64
2024/02/07 12:52:56;;;;;;;5.10;1.60;;;;;;;15.70;51.73;97414.75;104581;1257;72800;-59
2024/02/07 12:56:08;;;;;;;2.80;2.50;;;;;;;15.81;51.09;97420.51;105524;1260;70214;-59
2024/02/07 12:59:19;;;;;;;5.10;2.00;;;;;;;15.79;51.06;97425.36;104926;1257;71687;-59
2024/02/07 13:02:33;;;;;;;3.40;1.80;;;;;;;15.68;51.38;97421.25;105596;1257;62107;-59
2024/02/07 13:05:45;;;;;;;2.40;1.50;;;;;;;15.80;51.44;97420.14;105517;1254;59854;-62
2024/02/07 13:08:14;;;;;;;3.00;1.90;;;;;;;15.70;51.48;97426.00;105519;1257;73320;-58
2024/02/07 13:15:46;;;;;;;3.70;1.90;;;;;;;15.77;51.32;97418.16;105043;1254;73941;-60
2024/02/07 13:18:58;;;;;;;3.80;2.00;;;;;;;15.94;51.04;97424.06;105892;1254;60984;-59
2024/02/07 13:21:32;;;;;;;5.30;2.40;;;;;;;15.63;51.49;97421.96;105414;1252;60710;-58
2024/02/07 13:31:18;;;;;;;2.30;1.50;;;;;;;15.24;53.36;97417.83;104904;1257;71756;-60
2024/02/07 13:34:05;;;;;;;4.30;2.00;;;;;;;15.28;53.44;97409.97;104624;1253;61601;-58
2024/02/07 13:37:18;;;;;;;7.90;2.30;;;;;;;15.32;53.10;97411.73;104987;1253;60834;-58
2024/02/07 13:40:33;;;;;;;3.80;2.10;;;;;;;15.25;53.49;97411.69;105054;1257;73672;-60
2024/02/07 13:43:48;;;;;;;4.20;2.80;;;;;;;15.10;54.38;97411.96;105139;1253;68735;-59
2024/02/07 13:46:32;;;;;;;3.30;1.90;;;;;;;15.28;54.03;97407.71;105115;1257;72724;-59
2024/02/07 13:49:44;;;;;;;5.80;1.80;;;;;;;15.06;54.75;97413.98;104648;1254;61361;-59
2024/02/07 13:52:56;;;;;;;3.30;1.80;;;;;;;15.12;55.42;97417.77;104817;1254;60405;-58
2024/02/07 13:55:24;;;;;;;3.00;1.90;;;;;;;15.24;54.78;97416.96;104981;1257;73701;-59
2024/02/07 13:58:37;;;;;;;4.40;1.80;;;;;;;15.10;55.45;97411.09;105233;1256;69816;-59
2024/02/07 14:01:49;;;;;;;2.50;1.80;;;;;;;15.26;55.66;97408.32;105111;1253;74894;-59
2024/02/07 14:05:01;;;;;;;5.20;2.20;;;;;;;15.17;55.63;97412.49;105016;1270;62500;-58
2024/02/07 14:08:13;;;;;;;2.70;2.10;;;;;;;14.32;60.22;97412.59;104657;1254;60469;-59
2024/02/07 14:11:25;;;;;;;3.30;1.60;;;;;;;14.98;58.15;97419.63;105678;1257;74962;-60
2024/02/07 14:14:38;;;;;;;3.60;2.20;;;;;;;14.81;58.58;97419.27;104520;1253;68879;-58
2024/02/07 14:17:40;;;;;;;4.80;2.00;;;;;;;14.20;61.94;97423.80;105301;1254;71426;-59
2024/02/07 14:20:15;;;;;;;3.80;1.70;;;;;;;14.95;59.86;97429.59;104957;1253;60853;-59
2024/02/07 14:23:27;;;;;;;2.90;1.60;;;;;;;14.77;60.06;97431.01;104820;1253;60539;-59
2024/02/07 14:26:33;;;;;;;4.70;1.70;;;;;;;14.81;60.26;97433.10;104648;1258;74280;-59
2024/02/07 14:29:47;;;;;;;4.60;1.80;;;;;;;14.78;60.63;97434.37;105588;1257;69547;-61
2024/02/07 14:32:59;;;;;;;1.80;1.60;;;;;;;14.89;60.53;97429.09;105261;1251;72684;-60
2024/02/07 14:35:47;;;;;;;3.60;1.90;;;;;;;14.79;62.02;97434.68;106142;1256;61499;-61
2024/02/07 14:42:48;;;;;;;5.90;1.90;;;;;;;14.85;65.03;97433.00;105036;1253;73638;-59
2024/02/07 14:49:46;;;;;;;3.20;2.00;;;;;;;14.81;69.18;97422.83;105238;1251;72196;-62
2024/02/07 14:56:49;;;;;;;3.80;1.60;;;;;;;14.58;70.22;97424.09;105063;1256;60417;-60
2024/02/07 15:03:49;;;;;;;3.00;1.60;;;;;;;14.39;71.98;97427.10;105046;1256;69738;-60
2024/02/07 15:06:51;;;;;;;2.10;1.70;;;;;;;14.15;72.71;97410.87;104500;1266;71468;-60
2024/02/07 15:10:03;;;;;;;2.80;2.00;;;;;;;14.32;72.03;97417.33;105458;1256;61706;-59
2024/02/07 15:13:15;;;;;;;4.00;1.60;;;;;;;14.46;71.42;97415.20;105190;1258;60584;-61
2024/02/07 15:16:28;;;;;;;3.70;1.80;;;;;;;14.32;70.60;97426.14;104692;1257;73379;-61
2024/02/07 15:19:43;;;;;;;3.50;1.70;;;;;;;14.26;70.79;97419.88;105379;1257;68728;-59
2024/02/07 15:22:54;;;;;;;3.10;1.60;;;;;;;14.38;69.88;97427.75;107126;1257;73317;-64
2024/02/07 15:26:06;;;;;;;2.30;1.60;;;;;;;14.25;70.20;97431.92;105217;1256;61401;-62
2024/02/07 15:29:21;;;;;;;3.20;1.90;;;;;;;14.26;69.42;97432.88;106985;1252;60394;-63
2024/02/07 15:32:37;;;;;;;4.30;1.90;;;;;;;14.51;68.23;97426.58;105267;1251;74081;-62
2024/02/07 15:35:53;;;;;;;3.10;1.60;;;;;;;14.58;66.64;97426.75;104500;1260;69093;-60
2024/02/07 15:42:55;;;;;;;2.10;1.70;;;;;;;14.20;69.95;97436.58;106199;1256;61556;-61
2024/02/07 15:52:47;;;;;;;2.60;1.70;;;;;;;13.88;73.16;97449.59;105699;1253;69740;-60
2024/02/07 15:55:15;;;;;;;4.80;1.70;;;;;;;14.01;73.18;97438.34;105192;1255;72741;-61
2024/02/07 15:58:31;;;;;;;3.30;1.90;;;;;;;14.05;72.61;97432.66;105628;1254;62551;-60
2024/02/07 16:01:33;;;;;;;4.30;1.90;;;;;;;14.13;72.48;97435.17;105537;1257;60705;-60
2024/02/07 16:05:00;;;;;;;6.90;1.60;;;;;;;13.66;75.95;97435.61;104610;1262;73852;-61
2024/02/07 16:12:25;;;;;;;3.80;1.60;;;;;;;13.41;80.79;97430.27;105431;1255;72118;-61
2024/02/07 16:26:12;;;;;;;4.40;1.80;;;;;;;14.25;70.43;97443.95;104937;1256;69248;-60
2024/02/07 16:29:24;;;;;;;2.70;1.50;;;;;;;14.05;72.68;97438.86;106082;1256;73591;-59
2024/02/07 16:32:37;;;;;;;4.70;2.00;;;;;;;14.00;73.98;97447.08;105273;1253;61499;-60
2024/02/07 16:35:50;;;;;;;4.50;2.20;;;;;;;13.95;75.18;97449.33;106224;1251;60673;-59
2024/02/07 16:43:25;;;;;;;5.80;2.10;;;;;;;14.09;76.72;97461.55;104501;1260;70931;-59
2024/02/07 16:46:09;;;;;;;2.80;2.00;;;;;;;14.31;75.94;97483.41;105772;1256;72600;-59
2024/02/07 16:48:47;;;;;;;2.50;1.80;;;;;;;14.41;77.97;97494.02;106543;1252;61796;-61
2024/02/07 16:55:47;;;;;;;2.20;1.90;;;;;;;13.66;89.19;97503.20;104899;1257;73789;-60
2024/02/07 17:02:50;;;;;;;2.10;1.60;;;;;;;13.21;93.84;97508.17;104380;1264;71596;-60
2024/02/07 17:17:25;;;;;;;2.90;2.00;;;;;;;13.00;94.70;97527.20;104632;1256;68632;-60
2024/02/07 17:20:05;;;;;;;2.00;1.60;;;;;;;13.00;92.95;97525.23;105796;1257;73562;-64
2024/02/07 17:22:39;;;;;;;1.40;1.30;;;;;;;12.56;96.54;97528.14;105443;1256;61128;-60
2024/02/07 17:25:52;;;;;;;1.80;1.30;;;;;;;12.43;96.34;97530.97;105304;1253;61013;-60
2024/02/07 17:29:09;;;;;;;2.00;1.50;;;;;;;12.24;97.02;97531.84;105459;1257;73956;-60
2024/02/07 17:32:25;;;;;;;1.90;1.60;;;;;;;12.20;96.52;97539.23;105457;1257;69751;-61
2024/02/07 17:35:37;;;;;;;1.40;1.10;;;;;;;11.86;97.44;97541.98;105111;1256;72959;-59
2024/02/07 17:38:49;;;;;;;1.00;0.90;;;;;;;11.93;95.54;97556.69;105571;1254;61528;-59
2024/02/07 17:42:01;;;;;;;0.70;0.70;;;;;;;11.63;96.12;97560.12;104984;1266;60946;-60
2024/02/07 17:44:51;;;;;;;0.60;0.60;;;;;;;11.49;96.70;97564.98;104602;1269;74100;-60
2024/02/07 17:48:03;;;;;;;2.60;1.10;;;;;;;11.43;96.84;97568.95;104602;1257;70425;-60
2024/02/07 17:51:15;;;;;;;0.60;0.60;;;;;;;11.22;98.86;97560.92;104549;1270;72172;-60
2024/02/07 17:54:17;;;;;;;1.10;1.00;;;;;;;11.14;99.89;97566.33;104986;1256;60485;-59
2024/02/07 17:57:23;;;;;;;0.90;0.70;;;;;;;10.68;100.00;97592.44;104870;1271;60337;-59
2024/02/07 18:00:35;;;;;;;1.20;1.10;;;;;;;10.64;100.00;97589.98;104979;1256;73801;-59
2024/02/07 18:03:47;;;;;;;1.60;0.90;;;;;;;10.58;100.00;97590.17;105065;1251;69580;-60
2024/02/07 18:07:06;;;;;;;0.70;0.70;;;;;;;10.53;100.00;97595.09;104347;1257;74235;-60
2024/02/07 18:10:18;;;;;;;1.60;0.70;;;;;;;10.64;100.00;97591.86;104550;1274;60705;-60
2024/02/07 18:12:46;;;;;;;1.40;1.00;;;;;;;10.60;100.00;97602.66;104711;1257;60569;-60
2024/02/07 18:23:08;;;;;;;1.30;1.20;;;;;;;10.39;100.00;97612.43;105808;1256;72489;-60
2024/02/07 18:26:20;;;;;;;1.30;1.00;;;;;;;10.38;100.00;97611.52;105472;1254;61049;-61
2024/02/07 18:29:32;;;;;;;1.20;1.00;;;;;;;10.36;100.00;97614.23;105282;1254;60481;-61
2024/02/07 18:32:44;;;;;;;0.90;0.80;;;;;;;10.37;100.00;97613.30;105018;1256;72974;-59
2024/02/07 18:35:56;;;;;;;2.10;0.80;;;;;;;10.25;100.00;97621.32;105963;1254;70321;-59
2024/02/07 18:39:08;;;;;;;1.40;0.60;;;;;;;10.23;100.00;97628.13;104596;1270;72569;-60
2024/02/07 18:41:36;;;;;;;1.00;0.50;;;;;;;10.20;100.00;97631.88;105040;1257;60883;-59